createdAt,value
2022-11-29T00:00:09.209Z,4.35
2022-11-29T00:01:09.223Z,4.37
2022-11-29T00:02:09.365Z,4.37
2022-11-29T00:03:09.386Z,4.35
2022-11-29T00:04:09.280Z,4.35
2022-11-29T00:05:09.293Z,4.35
2022-11-29T00:06:09.314Z,4.35
2022-11-29T00:07:09.347Z,4.34
2022-11-29T00:08:09.358Z,4.32
2022-11-29T00:09:09.376Z,4.34
2022-11-29T00:10:09.395Z,4.37
2022-11-29T00:11:09.415Z,4.35
2022-11-29T00:12:09.452Z,4.35
2022-11-29T00:13:09.449Z,4.34
2022-11-29T00:14:09.470Z,4.35
2022-11-29T00:15:09.484Z,4.34
2022-11-29T00:16:09.548Z,4.34
2022-11-29T00:17:09.537Z,4.35
2022-11-29T00:18:09.540Z,4.34
2022-11-29T00:19:09.557Z,4.34
2022-11-29T00:20:09.581Z,4.34
2022-11-29T00:21:09.585Z,4.34
2022-11-29T00:22:09.627Z,4.37
2022-11-29T00:23:09.626Z,4.38
2022-11-29T00:24:09.646Z,4.38
2022-11-29T00:25:09.660Z,4.37
2022-11-29T00:26:09.681Z,4.38
2022-11-29T00:27:09.717Z,4.40
2022-11-29T00:28:09.722Z,4.37
2022-11-29T00:29:09.734Z,4.38
2022-11-29T00:30:09.753Z,4.35
2022-11-29T00:31:09.797Z,4.35
2022-11-29T00:32:09.791Z,4.34
2022-11-29T00:33:09.803Z,4.35
2022-11-29T00:34:09.825Z,4.37
2022-11-29T00:35:10.082Z,4.38
2022-11-29T00:36:09.861Z,4.40
2022-11-29T00:37:09.874Z,4.38
2022-11-29T00:38:09.900Z,4.38
2022-11-29T00:39:09.912Z,4.38
2022-11-29T00:40:09.936Z,4.38
2022-11-29T00:41:09.951Z,4.40
2022-11-29T00:42:09.974Z,4.40
2022-11-29T00:43:09.989Z,4.38
2022-11-29T00:44:12.836Z,4.38
2022-11-29T00:45:10.030Z,4.40
2022-11-29T00:46:10.104Z,4.40
2022-11-29T00:47:10.066Z,4.40
2022-11-29T00:48:10.087Z,4.40
2022-11-29T00:49:10.104Z,4.40
2022-11-29T00:50:10.124Z,4.41
2022-11-29T00:51:10.140Z,4.42
2022-11-29T00:52:10.164Z,4.45
2022-11-29T00:53:10.176Z,4.44
2022-11-29T00:54:10.197Z,4.42
2022-11-29T00:55:10.214Z,4.44
2022-11-29T00:56:10.232Z,4.45
2022-11-29T00:57:10.248Z,4.44
2022-11-29T00:58:10.288Z,4.44
2022-11-29T00:59:10.298Z,4.44
2022-11-29T01:00:10.319Z,4.44
2022-11-29T01:01:10.412Z,4.44
2022-11-29T01:02:10.418Z,4.45
2022-11-29T01:03:10.357Z,4.42
2022-11-29T01:04:10.368Z,4.44
2022-11-29T01:05:10.393Z,4.44
2022-11-29T01:06:10.406Z,4.48
2022-11-29T01:07:10.430Z,4.44
2022-11-29T01:08:10.431Z,4.45
2022-11-29T01:09:10.456Z,4.44
2022-11-29T01:10:10.473Z,4.42
2022-11-29T01:11:10.496Z,4.42
2022-11-29T01:12:10.507Z,4.42
2022-11-29T01:13:10.530Z,4.40
2022-11-29T01:14:10.544Z,4.41
2022-11-29T01:15:10.565Z,4.42
2022-11-29T01:16:10.576Z,4.42
2022-11-29T01:17:10.689Z,4.41
2022-11-29T01:18:10.601Z,4.41
2022-11-29T01:19:10.624Z,4.42
2022-11-29T01:20:10.639Z,4.40
2022-11-29T01:21:10.660Z,4.40
2022-11-29T01:22:10.689Z,4.41
2022-11-29T01:23:10.692Z,4.38
2022-11-29T01:24:10.706Z,4.40
2022-11-29T01:25:10.732Z,4.35
2022-11-29T01:26:10.742Z,4.37
2022-11-29T01:27:10.785Z,4.35
2022-11-29T01:28:10.766Z,4.37
2022-11-29T01:29:10.788Z,4.38
2022-11-29T01:30:10.804Z,4.37
2022-11-29T01:31:10.881Z,4.38
2022-11-29T01:32:10.858Z,4.42
2022-11-29T01:33:10.861Z,4.38
2022-11-29T01:34:10.878Z,4.38
2022-11-29T01:35:10.905Z,4.38
2022-11-29T01:36:10.918Z,4.38
2022-11-29T01:37:10.957Z,4.35
2022-11-29T01:38:10.954Z,4.35
2022-11-29T01:39:10.977Z,4.35
2022-11-29T01:40:10.987Z,4.37
2022-11-29T01:41:11.009Z,4.37
2022-11-29T01:42:11.046Z,4.38
2022-11-29T01:43:11.045Z,4.38
2022-11-29T01:44:11.061Z,4.38
2022-11-29T01:45:11.080Z,4.40
2022-11-29T01:46:11.185Z,4.40
2022-11-29T01:47:11.129Z,4.41
2022-11-29T01:48:11.125Z,4.41
2022-11-29T01:49:11.146Z,4.42
2022-11-29T01:50:11.157Z,4.42
2022-11-29T01:51:11.178Z,4.41
2022-11-29T01:52:11.197Z,4.41
2022-11-29T01:53:11.217Z,4.41
2022-11-29T01:54:11.226Z,4.42
2022-11-29T01:55:11.248Z,4.45
2022-11-29T01:56:11.390Z,4.42
2022-11-29T01:57:11.276Z,4.42
2022-11-29T01:58:11.278Z,4.42
2022-11-29T01:59:11.299Z,4.44
2022-11-29T02:00:11.314Z,4.42
2022-11-29T02:01:11.359Z,4.44
2022-11-29T02:02:11.388Z,4.44
2022-11-29T02:03:11.371Z,4.45
2022-11-29T02:04:11.386Z,4.45
2022-11-29T02:05:11.408Z,4.48
2022-11-29T02:06:11.424Z,4.45
2022-11-29T02:07:11.450Z,4.48
2022-11-29T02:08:11.457Z,4.48
2022-11-29T02:09:11.479Z,4.48
2022-11-29T02:10:11.489Z,4.45
2022-11-29T02:11:11.512Z,4.48
2022-11-29T02:12:11.528Z,4.49
2022-11-29T02:13:11.545Z,4.49
2022-11-29T02:14:11.561Z,4.48
2022-11-29T02:15:11.583Z,4.52
2022-11-29T02:16:11.626Z,4.52
2022-11-29T02:17:11.637Z,4.52
2022-11-29T02:18:11.634Z,4.52
2022-11-29T02:19:11.658Z,4.50
2022-11-29T02:20:11.671Z,4.50
2022-11-29T02:21:11.692Z,4.52
2022-11-29T02:22:11.725Z,4.52
2022-11-29T02:23:11.732Z,4.55
2022-11-29T02:24:11.748Z,4.55
2022-11-29T02:25:11.767Z,4.55
2022-11-29T02:26:11.782Z,4.59
2022-11-29T02:27:11.825Z,4.58
2022-11-29T02:28:11.820Z,4.56
2022-11-29T02:29:11.844Z,4.58
2022-11-29T02:30:11.856Z,4.58
2022-11-29T02:31:11.925Z,4.59
2022-11-29T02:32:11.910Z,4.59
2022-11-29T02:33:11.914Z,4.59
2022-11-29T02:34:11.928Z,4.62
2022-11-29T02:35:11.967Z,4.62
2022-11-29T02:36:11.964Z,4.62
2022-11-29T02:37:12.009Z,4.62
2022-11-29T02:38:11.997Z,4.62
2022-11-29T02:39:12.026Z,4.60
2022-11-29T02:40:12.031Z,4.63
2022-11-29T02:41:12.050Z,4.63
2022-11-29T02:42:12.091Z,4.63
2022-11-29T02:43:12.094Z,4.67
2022-11-29T02:44:12.099Z,4.67
2022-11-29T02:45:12.124Z,4.66
2022-11-29T02:46:12.240Z,4.67
2022-11-29T02:47:12.156Z,4.63
2022-11-29T02:48:12.160Z,4.66
2022-11-29T02:49:12.183Z,4.67
2022-11-29T02:50:12.199Z,4.66
2022-11-29T02:51:12.219Z,4.66
2022-11-29T02:52:12.240Z,4.66
2022-11-29T02:53:12.265Z,4.66
2022-11-29T02:54:12.270Z,4.66
2022-11-29T02:55:12.295Z,4.67
2022-11-29T02:56:12.312Z,4.67
2022-11-29T02:57:12.355Z,4.67
2022-11-29T02:58:12.351Z,4.67
2022-11-29T02:59:12.375Z,4.67
2022-11-29T03:00:12.389Z,4.71
2022-11-29T03:01:12.434Z,4.71
2022-11-29T03:02:12.498Z,4.71
2022-11-29T03:03:12.450Z,4.71
2022-11-29T03:04:12.468Z,4.73
2022-11-29T03:05:12.493Z,4.74
2022-11-29T03:06:12.497Z,4.73
2022-11-29T03:07:12.536Z,4.73
2022-11-29T03:08:12.529Z,4.73
2022-11-29T03:09:12.547Z,4.73
2022-11-29T03:10:12.549Z,4.75
2022-11-29T03:11:12.571Z,4.75
2022-11-29T03:12:12.611Z,4.74
2022-11-29T03:13:12.615Z,4.75
2022-11-29T03:14:12.630Z,4.78
2022-11-29T03:15:12.658Z,4.75
2022-11-29T03:16:12.709Z,4.77
2022-11-29T03:17:12.709Z,4.75
2022-11-29T03:18:12.702Z,4.77
2022-11-29T03:19:12.723Z,4.77
2022-11-29T03:20:12.724Z,4.75
2022-11-29T03:21:12.752Z,4.75
2022-11-29T03:22:12.778Z,4.75
2022-11-29T03:23:12.785Z,4.74
2022-11-29T03:24:12.799Z,4.78
2022-11-29T03:25:12.824Z,4.75
2022-11-29T03:26:12.829Z,4.75
2022-11-29T03:27:12.873Z,4.77
2022-11-29T03:28:12.864Z,4.74
2022-11-29T03:29:12.885Z,4.77
2022-11-29T03:30:12.899Z,4.75
2022-11-29T03:31:13.070Z,4.74
2022-11-29T03:32:12.955Z,4.75
2022-11-29T03:33:12.957Z,4.77
2022-11-29T03:34:12.958Z,4.75
2022-11-29T03:35:12.989Z,4.75
2022-11-29T03:36:12.998Z,4.75
2022-11-29T03:37:13.040Z,4.75
2022-11-29T03:38:13.024Z,4.77
2022-11-29T03:39:13.048Z,4.75
2022-11-29T03:40:13.066Z,4.77
2022-11-29T03:41:13.087Z,4.82
2022-11-29T03:42:13.123Z,4.86
2022-11-29T03:43:13.114Z,4.86
2022-11-29T03:44:13.135Z,4.86
2022-11-29T03:45:13.157Z,4.86
2022-11-29T03:46:13.219Z,4.84
2022-11-29T03:47:13.202Z,4.84
2022-11-29T03:48:13.208Z,4.86
2022-11-29T03:49:13.227Z,4.84
2022-11-29T03:50:13.233Z,4.84
2022-11-29T03:51:13.258Z,4.84
2022-11-29T03:52:13.269Z,4.84
2022-11-29T03:53:13.293Z,4.86
2022-11-29T03:54:13.308Z,4.86
2022-11-29T03:55:13.326Z,4.87
2022-11-29T03:56:13.345Z,4.89
2022-11-29T03:57:13.367Z,4.87
2022-11-29T03:58:13.372Z,4.87
2022-11-29T03:59:13.400Z,4.89
2022-11-29T04:00:13.407Z,4.89
2022-11-29T04:01:13.457Z,4.90
2022-11-29T04:02:13.502Z,4.90
2022-11-29T04:03:13.455Z,4.89
2022-11-29T04:04:13.473Z,4.89
2022-11-29T04:05:13.496Z,4.90
2022-11-29T04:06:13.514Z,4.89
2022-11-29T04:07:13.559Z,4.89
2022-11-29T04:08:13.548Z,4.90
2022-11-29T04:09:13.573Z,4.90
2022-11-29T04:10:13.578Z,4.90
2022-11-29T04:11:13.598Z,4.90
2022-11-29T04:12:13.635Z,4.90
2022-11-29T04:13:13.640Z,4.92
2022-11-29T04:14:13.659Z,4.92
2022-11-29T04:15:15.619Z,4.92
2022-11-29T04:16:13.754Z,4.92
2022-11-29T04:17:13.736Z,4.93
2022-11-29T04:18:13.723Z,4.92
2022-11-29T04:19:13.747Z,4.93
2022-11-29T04:20:13.757Z,4.90
2022-11-29T04:21:13.779Z,4.92
2022-11-29T04:22:13.815Z,4.93
2022-11-29T04:23:13.820Z,4.93
2022-11-29T04:24:13.826Z,4.96
2022-11-29T04:25:13.849Z,4.96
2022-11-29T04:26:13.862Z,4.94
2022-11-29T04:27:13.888Z,4.96
2022-11-29T04:28:13.894Z,4.97
2022-11-29T04:29:13.919Z,4.97
2022-11-29T04:30:13.934Z,4.97
2022-11-29T04:31:13.977Z,4.99
2022-11-29T04:32:13.974Z,4.99
2022-11-29T04:33:13.995Z,4.99
2022-11-29T04:34:14.011Z,4.97
2022-11-29T04:35:14.034Z,5.00
2022-11-29T04:36:14.062Z,4.97
2022-11-29T04:37:14.093Z,4.99
2022-11-29T04:38:14.094Z,4.97
2022-11-29T04:39:14.104Z,4.99
2022-11-29T04:40:14.117Z,5.00
2022-11-29T04:41:14.142Z,5.00
2022-11-29T04:42:14.178Z,5.00
2022-11-29T04:43:14.181Z,5.00
2022-11-29T04:44:14.196Z,5.00
2022-11-29T04:45:14.218Z,5.02
2022-11-29T04:46:14.295Z,5.04
2022-11-29T04:47:14.261Z,5.05
2022-11-29T04:48:14.270Z,5.04
2022-11-29T04:49:14.291Z,5.04
2022-11-29T04:50:14.308Z,5.04
2022-11-29T04:51:14.331Z,5.04
2022-11-29T04:52:14.349Z,5.04
2022-11-29T04:53:14.368Z,5.02
2022-11-29T04:54:14.388Z,5.02
2022-11-29T04:55:20.810Z,5.05
2022-11-29T04:56:14.423Z,5.04
2022-11-29T04:57:14.461Z,5.04
2022-11-29T04:58:14.458Z,5.07
2022-11-29T04:59:14.477Z,5.07
2022-11-29T05:00:14.496Z,5.07
2022-11-29T05:01:14.567Z,5.07
2022-11-29T05:02:14.551Z,5.08
2022-11-29T05:03:14.553Z,5.10
2022-11-29T05:04:14.573Z,5.11
2022-11-29T05:05:14.593Z,5.12
2022-11-29T05:06:14.610Z,5.12
2022-11-29T05:07:14.651Z,5.12
2022-11-29T05:08:14.640Z,5.14
2022-11-29T05:09:14.666Z,5.17
2022-11-29T05:10:14.677Z,5.12
2022-11-29T05:11:14.701Z,5.14
2022-11-29T05:12:14.738Z,5.15
2022-11-29T05:13:14.741Z,5.11
2022-11-29T05:14:14.754Z,5.12
2022-11-29T05:15:14.766Z,5.12
2022-11-29T05:16:14.839Z,5.12
2022-11-29T05:17:14.819Z,5.12
2022-11-29T05:18:14.827Z,5.12
2022-11-29T05:19:14.841Z,5.11
2022-11-29T05:20:14.865Z,5.11
2022-11-29T05:21:14.878Z,5.12
2022-11-29T05:22:14.906Z,5.12
2022-11-29T05:23:14.918Z,5.11
2022-11-29T05:24:14.936Z,5.12
2022-11-29T05:25:14.949Z,5.12
2022-11-29T05:26:14.975Z,5.11
2022-11-29T05:27:14.993Z,5.12
2022-11-29T05:28:15.017Z,5.12
2022-11-29T05:29:15.023Z,5.14
2022-11-29T05:30:15.045Z,5.15
2022-11-29T05:31:15.093Z,5.14
2022-11-29T05:32:15.091Z,5.14
2022-11-29T05:33:15.083Z,5.14
2022-11-29T05:34:15.102Z,5.15
2022-11-29T05:35:15.108Z,5.15
2022-11-29T05:36:15.128Z,5.15
2022-11-29T05:37:15.164Z,5.14
2022-11-29T05:38:15.171Z,5.15
2022-11-29T05:39:15.189Z,5.15
2022-11-29T05:40:15.203Z,5.15
2022-11-29T05:41:15.224Z,5.15
2022-11-29T05:42:15.261Z,5.15
2022-11-29T05:43:15.260Z,5.15
2022-11-29T05:44:15.279Z,5.15
2022-11-29T05:45:15.296Z,5.15
2022-11-29T05:46:15.349Z,5.15
2022-11-29T05:47:15.341Z,5.15
2022-11-29T05:48:15.345Z,5.17
2022-11-29T05:49:15.361Z,5.18
2022-11-29T05:50:15.380Z,5.17
2022-11-29T05:51:15.396Z,5.17
2022-11-29T05:52:15.424Z,5.17
2022-11-29T05:53:15.429Z,5.15
2022-11-29T05:54:15.450Z,5.15
2022-11-29T05:55:15.456Z,5.15
2022-11-29T05:56:15.479Z,5.18
2022-11-29T05:57:15.497Z,5.18
2022-11-29T05:58:15.516Z,5.17
2022-11-29T05:59:15.534Z,5.18
2022-11-29T06:00:15.555Z,5.18
2022-11-29T06:01:15.560Z,5.17
2022-11-29T06:02:15.647Z,5.18
2022-11-29T06:03:15.638Z,5.18
2022-11-29T06:04:15.622Z,5.18
2022-11-29T06:05:15.632Z,5.18
2022-11-29T06:06:15.654Z,5.18
2022-11-29T06:07:15.755Z,5.20
2022-11-29T06:08:15.672Z,5.20
2022-11-29T06:09:15.692Z,5.17
2022-11-29T06:10:15.712Z,5.18
2022-11-29T06:11:15.730Z,5.18
2022-11-29T06:12:20.670Z,5.20
2022-11-29T06:13:15.770Z,5.18
2022-11-29T06:14:15.792Z,5.18
2022-11-29T06:15:15.809Z,5.18
2022-11-29T06:16:15.861Z,5.20
2022-11-29T06:17:15.862Z,5.20
2022-11-29T06:18:15.866Z,5.20
2022-11-29T06:19:15.885Z,5.18
2022-11-29T06:20:15.909Z,5.21
2022-11-29T06:21:15.911Z,5.25
2022-11-29T06:22:15.956Z,5.26
2022-11-29T06:23:15.945Z,5.28
2022-11-29T06:24:15.968Z,5.29
2022-11-29T06:25:15.973Z,5.29
2022-11-29T06:26:16.024Z,5.29
2022-11-29T06:27:16.005Z,5.29
2022-11-29T06:28:16.026Z,5.28
2022-11-29T06:29:16.038Z,5.28
2022-11-29T06:30:16.062Z,5.29
2022-11-29T06:31:16.177Z,5.28
2022-11-29T06:32:16.109Z,5.28
2022-11-29T06:33:16.097Z,5.28
2022-11-29T06:34:16.122Z,5.28
2022-11-29T06:35:16.126Z,5.28
2022-11-29T06:36:16.150Z,5.28
2022-11-29T06:37:16.183Z,5.28
2022-11-29T06:38:16.190Z,5.28
2022-11-29T06:39:16.207Z,5.28
2022-11-29T06:40:16.234Z,5.28
2022-11-29T06:41:16.242Z,5.28
2022-11-29T06:42:16.285Z,5.26
2022-11-29T06:43:16.271Z,5.28
2022-11-29T06:44:16.295Z,5.26
2022-11-29T06:45:16.312Z,5.28
2022-11-29T06:46:16.413Z,5.29
2022-11-29T06:47:16.365Z,5.29
2022-11-29T06:48:16.365Z,5.28
2022-11-29T06:49:16.383Z,5.29
2022-11-29T06:50:16.403Z,5.32
2022-11-29T06:51:16.417Z,5.33
2022-11-29T06:52:16.464Z,5.35
2022-11-29T06:53:16.451Z,5.35
2022-11-29T06:54:16.476Z,5.33
2022-11-29T06:55:16.492Z,5.36
2022-11-29T06:56:16.516Z,5.36
2022-11-29T06:57:16.550Z,5.36
2022-11-29T06:58:16.554Z,5.35
2022-11-29T06:59:16.561Z,5.36
2022-11-29T07:00:16.583Z,5.36
2022-11-29T07:01:16.638Z,5.36
2022-11-29T07:02:16.714Z,5.36
2022-11-29T07:03:16.634Z,5.36
2022-11-29T07:04:16.659Z,5.36
2022-11-29T07:05:16.674Z,5.38
2022-11-29T07:06:16.697Z,5.39
2022-11-29T07:07:16.797Z,5.39
2022-11-29T07:08:16.735Z,5.41
2022-11-29T07:09:16.739Z,5.43
2022-11-29T07:10:16.758Z,5.43
2022-11-29T07:11:16.762Z,5.44
2022-11-29T07:12:16.804Z,5.44
2022-11-29T07:13:16.803Z,5.44
2022-11-29T07:14:16.822Z,5.44
2022-11-29T07:15:16.827Z,5.41
2022-11-29T07:16:16.888Z,5.46
2022-11-29T07:17:16.882Z,5.44
2022-11-29T07:18:16.885Z,5.44
2022-11-29T07:19:16.901Z,5.46
2022-11-29T07:20:16.923Z,5.46
2022-11-29T07:21:16.939Z,5.44
2022-11-29T07:22:16.998Z,5.46
2022-11-29T07:23:16.979Z,5.44
2022-11-29T07:24:17.000Z,5.44
2022-11-29T07:25:17.016Z,5.46
2022-11-29T07:26:17.032Z,5.46
2022-11-29T07:27:17.069Z,5.48
2022-11-29T07:28:17.077Z,5.48
2022-11-29T07:29:17.081Z,5.50
2022-11-29T07:30:17.099Z,5.51
2022-11-29T07:31:17.206Z,5.51
2022-11-29T07:32:17.125Z,5.53
2022-11-29T07:33:17.132Z,5.54
2022-11-29T07:34:17.153Z,5.54
2022-11-29T07:35:17.175Z,5.53
2022-11-29T07:36:17.197Z,5.56
2022-11-29T07:37:17.214Z,5.56
2022-11-29T07:38:17.240Z,5.56
2022-11-29T07:39:17.249Z,5.57
2022-11-29T07:40:17.271Z,5.57
2022-11-29T07:41:17.284Z,5.57
2022-11-29T07:42:17.322Z,5.57
2022-11-29T07:43:17.311Z,5.61
2022-11-29T07:44:17.330Z,5.62
2022-11-29T07:45:17.347Z,5.64
2022-11-29T07:46:17.423Z,5.64
2022-11-29T07:47:17.407Z,5.64
2022-11-29T07:48:17.414Z,5.64
2022-11-29T07:49:17.428Z,5.66
2022-11-29T07:50:17.454Z,5.65
2022-11-29T07:51:17.468Z,5.66
2022-11-29T07:52:17.513Z,5.66
2022-11-29T07:53:17.502Z,5.66
2022-11-29T07:54:17.520Z,5.65
2022-11-29T07:55:19.215Z,5.66
2022-11-29T07:56:17.563Z,5.66
2022-11-29T07:57:17.590Z,5.68
2022-11-29T07:58:17.710Z,5.66
2022-11-29T07:59:17.609Z,5.66
2022-11-29T08:00:17.629Z,5.68
2022-11-29T08:01:17.676Z,5.68
2022-11-29T08:02:17.762Z,5.69
2022-11-29T08:03:17.670Z,5.71
2022-11-29T08:04:17.699Z,5.71
2022-11-29T08:05:17.710Z,5.71
2022-11-29T08:06:17.728Z,5.75
2022-11-29T08:07:17.792Z,5.79
2022-11-29T08:08:17.773Z,5.80
2022-11-29T08:09:17.783Z,5.82
2022-11-29T08:10:17.801Z,5.80
2022-11-29T08:11:17.806Z,5.83
2022-11-29T08:12:17.844Z,5.83
2022-11-29T08:13:17.834Z,5.83
2022-11-29T08:14:17.851Z,5.82
2022-11-29T08:15:17.868Z,5.83
2022-11-29T08:16:17.958Z,5.84
2022-11-29T08:17:17.919Z,5.86
2022-11-29T08:18:17.914Z,5.86
2022-11-29T08:19:17.932Z,5.87
2022-11-29T08:20:17.955Z,5.89
2022-11-29T08:21:17.979Z,5.87
2022-11-29T08:22:18.014Z,5.90
2022-11-29T08:23:18.012Z,5.91
2022-11-29T08:24:18.041Z,5.91
2022-11-29T08:25:18.039Z,5.93
2022-11-29T08:26:18.065Z,5.93
2022-11-29T08:27:18.070Z,5.94
2022-11-29T08:28:18.111Z,5.97
2022-11-29T08:29:18.113Z,5.97
2022-11-29T08:30:18.137Z,5.98
2022-11-29T08:31:18.213Z,5.99
2022-11-29T08:32:18.212Z,5.99
2022-11-29T08:33:18.200Z,5.99
2022-11-29T08:34:18.211Z,6.02
2022-11-29T08:35:18.226Z,6.02
2022-11-29T08:36:18.248Z,6.04
2022-11-29T08:37:18.264Z,6.04
2022-11-29T08:38:18.284Z,6.05
2022-11-29T08:39:18.292Z,6.07
2022-11-29T08:40:18.366Z,6.05
2022-11-29T08:41:18.328Z,6.04
2022-11-29T08:42:18.351Z,6.05
2022-11-29T08:43:18.367Z,6.05
2022-11-29T08:44:18.391Z,6.05
2022-11-29T08:45:18.405Z,6.07
2022-11-29T08:46:19.063Z,6.04
2022-11-29T08:47:18.462Z,6.02
2022-11-29T08:48:18.473Z,6.05
2022-11-29T08:49:18.482Z,6.08
2022-11-29T08:50:18.501Z,6.08
2022-11-29T08:51:18.515Z,6.09
2022-11-29T08:52:18.560Z,6.11
2022-11-29T08:53:18.555Z,6.12
2022-11-29T08:54:18.563Z,6.16
2022-11-29T08:55:18.582Z,6.14
2022-11-29T08:57:46.789Z,6.17
2022-11-29T08:58:18.631Z,6.19
2022-11-29T08:59:18.639Z,6.20
2022-11-29T09:00:18.666Z,6.24
2022-11-29T09:01:18.817Z,6.24
2022-11-29T09:02:18.773Z,6.27
2022-11-29T09:03:18.715Z,6.28
2022-11-29T09:04:18.736Z,6.31
2022-11-29T09:05:18.740Z,6.30
2022-11-29T09:06:18.760Z,6.31
2022-11-29T09:07:18.850Z,6.31
2022-11-29T09:08:18.793Z,6.30
2022-11-29T09:09:18.808Z,6.28
2022-11-29T09:10:18.826Z,6.28
2022-11-29T09:11:18.841Z,6.31
2022-11-29T09:12:18.885Z,6.31
2022-11-29T09:13:18.876Z,6.33
2022-11-29T09:14:18.896Z,6.36
2022-11-29T09:15:18.915Z,6.41
2022-11-29T09:16:19.023Z,6.42
2022-11-29T09:17:18.960Z,6.42
2022-11-29T09:18:18.965Z,6.45
2022-11-29T09:19:18.971Z,6.45
2022-11-29T09:20:18.993Z,6.44
2022-11-29T09:21:19.013Z,6.42
2022-11-29T09:22:19.056Z,6.42
2022-11-29T09:23:19.037Z,6.41
2022-11-29T09:24:19.062Z,6.38
2022-11-29T09:25:19.079Z,6.38
2022-11-29T09:26:19.102Z,6.39
2022-11-29T09:27:19.146Z,6.36
2022-11-29T09:28:19.145Z,6.36
2022-11-29T09:29:19.159Z,6.35
2022-11-29T09:30:24.271Z,6.33
2022-11-29T09:31:19.208Z,6.31
2022-11-29T09:32:19.230Z,6.33
2022-11-29T09:33:19.234Z,6.33
2022-11-29T09:34:19.250Z,6.35
2022-11-29T09:35:19.275Z,6.36
2022-11-29T09:36:21.569Z,6.39
2022-11-29T09:37:19.338Z,6.39
2022-11-29T09:38:19.322Z,6.39
2022-11-29T09:39:19.347Z,6.39
2022-11-29T09:40:19.351Z,6.39
2022-11-29T09:41:19.374Z,6.39
2022-11-29T09:42:19.398Z,6.41
2022-11-29T09:43:19.417Z,6.41
2022-11-29T09:44:19.421Z,6.44
2022-11-29T09:45:19.436Z,6.46
2022-11-29T09:46:19.472Z,6.46
2022-11-29T09:47:19.485Z,6.44
2022-11-29T09:48:19.474Z,6.41
2022-11-29T09:49:19.501Z,6.42
2022-11-29T09:50:19.519Z,6.46
2022-11-29T09:51:19.543Z,6.46
2022-11-29T09:52:19.580Z,6.46
2022-11-29T09:53:19.570Z,6.52
2022-11-29T09:54:19.588Z,6.51
2022-11-29T09:55:19.609Z,6.49
2022-11-29T09:56:19.634Z,6.49
2022-11-29T09:57:19.658Z,6.48
2022-11-29T09:58:19.658Z,6.48
2022-11-29T09:59:19.682Z,6.44
2022-11-29T10:00:19.787Z,6.44
2022-11-29T10:01:19.760Z,6.46
2022-11-29T10:02:21.627Z,6.48
2022-11-29T10:03:19.741Z,6.48
2022-11-29T10:04:19.745Z,6.46
2022-11-29T10:05:19.780Z,6.45
2022-11-29T10:06:19.780Z,6.48
2022-11-29T10:07:19.875Z,6.45
2022-11-29T10:08:19.819Z,6.44
2022-11-29T10:09:19.841Z,6.45
2022-11-29T10:10:19.858Z,6.45
2022-11-29T10:11:19.878Z,6.46
2022-11-29T10:12:19.911Z,6.46
2022-11-29T10:13:19.914Z,6.44
2022-11-29T10:14:19.931Z,6.41
2022-11-29T10:15:19.952Z,6.42
2022-11-29T10:16:20.008Z,6.44
2022-11-29T10:17:20.006Z,6.44
2022-11-29T10:18:19.993Z,6.45
2022-11-29T10:19:20.023Z,6.44
2022-11-29T10:20:20.025Z,6.42
2022-11-29T10:21:20.049Z,6.41
2022-11-29T10:22:20.070Z,6.44
2022-11-29T10:23:20.077Z,6.44
2022-11-29T10:24:20.081Z,6.48
2022-11-29T10:25:20.101Z,6.46
2022-11-29T10:26:20.117Z,6.46
2022-11-29T10:27:20.156Z,6.44
2022-11-29T10:28:26.744Z,6.42
2022-11-29T10:29:20.253Z,6.42
2022-11-29T10:30:20.255Z,6.42
2022-11-29T10:31:20.587Z,6.46
2022-11-29T10:32:20.246Z,6.46
2022-11-29T10:33:20.242Z,6.46
2022-11-29T10:34:20.243Z,6.45
2022-11-29T10:35:20.265Z,6.46
2022-11-29T10:36:20.269Z,6.45
2022-11-29T10:37:20.291Z,6.45
2022-11-29T10:38:30.922Z,6.46
2022-11-29T10:39:20.344Z,6.48
2022-11-29T10:40:20.346Z,6.49
2022-11-29T10:41:20.359Z,6.42
2022-11-29T10:42:20.453Z,6.44
2022-11-29T10:43:20.374Z,6.46
2022-11-29T10:44:20.397Z,6.49
2022-11-29T10:45:20.415Z,6.48
2022-11-29T10:46:20.474Z,6.49
2022-11-29T10:47:20.450Z,6.54
2022-11-29T10:48:20.462Z,6.54
2022-11-29T10:49:20.490Z,6.57
2022-11-29T10:50:20.499Z,6.56
2022-11-29T10:51:20.515Z,6.57
2022-11-29T10:52:20.528Z,6.56
2022-11-29T10:53:20.549Z,6.56
2022-11-29T10:54:20.560Z,6.57
2022-11-29T10:55:20.579Z,6.56
2022-11-29T10:56:20.588Z,6.57
2022-11-29T10:57:20.619Z,6.60
2022-11-29T10:58:26.254Z,6.63
2022-11-29T10:59:20.648Z,6.63
2022-11-29T11:00:20.666Z,6.62
2022-11-29T11:01:20.756Z,6.59
2022-11-29T11:02:20.695Z,6.60
2022-11-29T11:03:20.729Z,6.63
2022-11-29T11:04:20.729Z,6.64
2022-11-29T11:05:20.770Z,6.64
2022-11-29T11:06:20.755Z,6.66
2022-11-29T11:07:20.813Z,6.64
2022-11-29T11:08:20.792Z,6.64
2022-11-29T11:09:20.814Z,6.64
2022-11-29T11:10:20.814Z,6.66
2022-11-29T11:11:20.841Z,6.64
2022-11-29T11:12:20.862Z,6.59
2022-11-29T11:13:20.879Z,6.56
2022-11-29T11:14:20.893Z,6.60
2022-11-29T11:15:20.918Z,6.62
2022-11-29T11:16:20.984Z,6.62
2022-11-29T11:17:20.971Z,6.60
2022-11-29T11:18:20.970Z,6.59
2022-11-29T11:19:20.993Z,6.62
2022-11-29T11:20:21.000Z,6.64
2022-11-29T11:21:21.024Z,6.67
2022-11-29T11:22:21.054Z,6.69
2022-11-29T11:23:21.053Z,6.69
2022-11-29T11:24:21.061Z,6.69
2022-11-29T11:25:21.086Z,6.72
2022-11-29T11:26:21.098Z,6.70
2022-11-29T11:27:21.140Z,6.70
2022-11-29T11:28:21.135Z,6.69
2022-11-29T11:29:21.160Z,6.66
2022-11-29T11:30:21.170Z,6.64
2022-11-29T11:31:21.204Z,6.64
2022-11-29T11:32:21.221Z,6.62
2022-11-29T11:33:21.223Z,6.63
2022-11-29T11:34:21.241Z,6.63
2022-11-29T11:35:21.262Z,6.63
2022-11-29T11:36:21.274Z,6.64
2022-11-29T11:37:21.306Z,6.66
2022-11-29T11:38:21.295Z,6.64
2022-11-29T11:39:21.336Z,6.64
2022-11-29T11:40:21.417Z,6.62
2022-11-29T11:41:21.352Z,6.60
2022-11-29T11:42:21.375Z,6.59
2022-11-29T11:43:21.382Z,6.59
2022-11-29T11:44:45.588Z,6.63
2022-11-29T11:45:21.413Z,6.66
2022-11-29T11:46:21.488Z,6.67
2022-11-29T11:47:21.467Z,6.72
2022-11-29T11:48:21.457Z,6.69
2022-11-29T11:49:21.482Z,6.66
2022-11-29T11:50:21.491Z,6.67
2022-11-29T11:51:21.513Z,6.66
2022-11-29T11:52:21.551Z,6.63
2022-11-29T11:53:21.559Z,6.62
2022-11-29T11:54:21.567Z,6.63
2022-11-29T11:55:21.595Z,6.62
2022-11-29T11:56:21.605Z,6.62
2022-11-29T11:57:21.666Z,6.63
2022-11-29T11:58:21.637Z,6.62
2022-11-29T11:59:21.658Z,6.60
2022-11-29T12:00:40.651Z,6.59
2022-11-29T12:01:21.705Z,6.57
2022-11-29T12:02:21.764Z,6.59
2022-11-29T12:03:21.770Z,6.62
2022-11-29T12:04:21.742Z,6.66
2022-11-29T12:05:21.764Z,6.70
2022-11-29T12:06:21.783Z,6.67
2022-11-29T12:07:33.950Z,6.66
2022-11-29T12:08:21.861Z,6.66
2022-11-29T12:09:21.835Z,6.67
2022-11-29T12:10:21.843Z,6.69
2022-11-29T12:11:21.867Z,6.64
2022-11-29T12:12:21.902Z,6.66
2022-11-29T12:13:21.925Z,6.62
2022-11-29T12:14:21.901Z,6.60
2022-11-29T12:15:21.928Z,6.59
2022-11-29T12:16:21.941Z,6.62
2022-11-29T12:17:21.966Z,6.66
2022-11-29T12:18:21.975Z,6.66
2022-11-29T12:19:21.997Z,6.66
2022-11-29T12:20:22.097Z,6.67
2022-11-29T12:21:22.034Z,6.66
2022-11-29T12:22:22.061Z,6.64
2022-11-29T12:23:22.074Z,6.67
2022-11-29T12:24:22.122Z,6.67
2022-11-29T12:25:22.108Z,6.66
2022-11-29T12:26:54.931Z,6.64
2022-11-29T12:27:22.163Z,6.63
2022-11-29T12:28:22.173Z,6.62
2022-11-29T12:29:22.204Z,6.62
2022-11-29T12:30:22.202Z,6.59
2022-11-29T12:31:22.294Z,6.60
2022-11-29T12:32:22.247Z,6.62
2022-11-29T12:33:22.254Z,6.60
2022-11-29T12:34:22.885Z,6.56
2022-11-29T12:35:22.288Z,6.56
2022-11-29T12:36:22.305Z,6.54
2022-11-29T12:37:22.346Z,6.56
2022-11-29T12:38:22.332Z,6.56
2022-11-29T12:39:22.375Z,6.54
2022-11-29T12:40:22.363Z,6.54
2022-11-29T12:41:22.392Z,6.54
2022-11-29T12:42:22.482Z,6.52
2022-11-29T12:43:22.450Z,6.54
2022-11-29T12:44:22.436Z,6.57
2022-11-29T12:45:22.452Z,6.49
2022-11-29T12:46:22.537Z,6.49
2022-11-29T12:47:38.172Z,6.51
2022-11-29T12:48:22.533Z,6.49
2022-11-29T12:49:22.547Z,6.48
2022-11-29T12:50:22.548Z,6.46
2022-11-29T12:51:22.564Z,6.48
2022-11-29T12:52:22.599Z,6.49
2022-11-29T12:53:27.022Z,6.52
2022-11-29T12:54:22.621Z,6.56
2022-11-29T12:55:22.672Z,6.60
2022-11-29T12:56:22.655Z,6.64
2022-11-29T12:57:22.676Z,6.66
2022-11-29T12:58:22.704Z,6.69
2022-11-29T12:59:22.688Z,6.72
2022-11-29T13:00:22.701Z,6.74
2022-11-29T13:01:22.821Z,6.72
2022-11-29T13:02:22.804Z,6.70
2022-11-29T13:03:22.750Z,6.74
2022-11-29T13:04:22.761Z,6.72
2022-11-29T13:05:22.810Z,6.75
2022-11-29T13:06:22.796Z,6.72
2022-11-29T13:07:22.899Z,6.70
2022-11-29T13:08:22.852Z,6.66
2022-11-29T13:09:22.861Z,6.69
2022-11-29T13:10:22.866Z,6.69
2022-11-29T13:11:22.879Z,6.69
2022-11-29T13:12:22.914Z,6.72
2022-11-29T13:13:22.951Z,6.74
2022-11-29T13:15:22.951Z,6.74
2022-11-29T13:16:27.701Z,6.72
2022-11-29T13:17:23.011Z,6.77
2022-11-29T13:18:22.987Z,6.77
2022-11-29T13:19:23.013Z,6.78
2022-11-29T13:20:23.027Z,6.79